sensor_id;sensor_type;location;lat;lon;timestamp;P1;durP1;ratioP1;P2;durP2;ratioP2
50012;SDS011;35901;48.694;9.476;2022-09-12T00:01:51;25.37;;;18.50;;
50012;SDS011;35901;48.694;9.476;2022-09-12T00:04:17;21.83;;;16.93;;
50012;SDS011;35901;48.694;9.476;2022-09-12T00:06:43;22.17;;;17.63;;
50012;SDS011;35901;48.694;9.476;2022-09-12T00:09:10;20.73;;;16.37;;
50012;SDS011;35901;48.694;9.476;2022-09-12T00:11:38;26.57;;;18.27;;
50012;SDS011;35901;48.694;9.476;2022-09-12T00:14:06;31.20;;;20.00;;
50012;SDS011;35901;48.694;9.476;2022-09-12T00:16:34;26.67;;;18.83;;
50012;SDS011;35901;48.694;9.476;2022-09-12T00:19:00;23.90;;;18.67;;
50012;SDS011;35901;48.694;9.476;2022-09-12T00:21:26;24.73;;;18.33;;
50012;SDS011;35901;48.694;9.476;2022-09-12T00:23:52;24.30;;;18.73;;
50012;SDS011;35901;48.694;9.476;2022-09-12T00:26:18;23.63;;;18.30;;
50012;SDS011;35901;48.694;9.476;2022-09-12T00:28:45;20.00;;;15.50;;
50012;SDS011;35901;48.694;9.476;2022-09-12T00:31:12;24.30;;;17.57;;
50012;SDS011;35901;48.694;9.476;2022-09-12T00:33:44;23.50;;;16.70;;
50012;SDS011;35901;48.694;9.476;2022-09-12T00:36:12;25.53;;;18.90;;
50012;SDS011;35901;48.694;9.476;2022-09-12T00:38:39;21.77;;;18.27;;
50012;SDS011;35901;48.694;9.476;2022-09-12T00:41:11;19.30;;;16.80;;
50012;SDS011;35901;48.694;9.476;2022-09-12T00:43:44;20.47;;;15.37;;
50012;SDS011;35901;48.694;9.476;2022-09-12T00:51:38;19.40;;;15.37;;
50012;SDS011;35901;48.694;9.476;2022-09-12T00:54:26;23.07;;;16.73;;
50012;SDS011;35901;48.694;9.476;2022-09-12T00:56:57;17.93;;;14.83;;
50012;SDS011;35901;48.694;9.476;2022-09-12T00:59:26;19.33;;;15.70;;
50012;SDS011;35901;48.694;9.476;2022-09-12T01:01:59;15.70;;;14.00;;
50012;SDS011;35901;48.694;9.476;2022-09-12T01:04:25;18.63;;;15.33;;
50012;SDS011;35901;48.694;9.476;2022-09-12T01:06:52;17.67;;;14.50;;
50012;SDS011;35901;48.694;9.476;2022-09-12T01:09:21;19.63;;;16.13;;
50012;SDS011;35901;48.694;9.476;2022-09-12T01:11:47;23.07;;;16.00;;
50012;SDS011;35901;48.694;9.476;2022-09-12T01:14:15;114.40;;;20.43;;
50012;SDS011;35901;48.694;9.476;2022-09-12T01:16:41;25.10;;;17.30;;
50012;SDS011;35901;48.694;9.476;2022-09-12T01:19:23;21.37;;;16.27;;
50012;SDS011;35901;48.694;9.476;2022-09-12T01:22:18;19.87;;;15.50;;
50012;SDS011;35901;48.694;9.476;2022-09-12T01:33:05;28.33;;;20.77;;
50012;SDS011;35901;48.694;9.476;2022-09-12T01:36:00;27.00;;;19.67;;
50012;SDS011;35901;48.694;9.476;2022-09-12T01:47:09;261.77;;;24.67;;
50012;SDS011;35901;48.694;9.476;2022-09-12T01:49:46;20.50;;;15.83;;
50012;SDS011;35901;48.694;9.476;2022-09-12T01:52:45;24.30;;;17.70;;
50012;SDS011;35901;48.694;9.476;2022-09-12T01:55:30;28.30;;;18.57;;
50012;SDS011;35901;48.694;9.476;2022-09-12T01:58:08;24.03;;;17.17;;
50012;SDS011;35901;48.694;9.476;2022-09-12T02:00:51;22.03;;;16.93;;
50012;SDS011;35901;48.694;9.476;2022-09-12T02:03:24;19.00;;;16.33;;
50012;SDS011;35901;48.694;9.476;2022-09-12T02:05:56;23.03;;;18.20;;
50012;SDS011;35901;48.694;9.476;2022-09-12T02:08:27;25.10;;;18.10;;
50012;SDS011;35901;48.694;9.476;2022-09-12T02:11:07;31.63;;;20.47;;
50012;SDS011;35901;48.694;9.476;2022-09-12T02:16:18;21.57;;;18.07;;
50012;SDS011;35901;48.694;9.476;2022-09-12T02:18:54;23.67;;;18.10;;
50012;SDS011;35901;48.694;9.476;2022-09-12T02:21:27;21.63;;;17.50;;
50012;SDS011;35901;48.694;9.476;2022-09-12T02:23:57;22.87;;;17.97;;
50012;SDS011;35901;48.694;9.476;2022-09-12T02:26:33;21.23;;;17.83;;
50012;SDS011;35901;48.694;9.476;2022-09-12T02:29:02;20.80;;;16.63;;
50012;SDS011;35901;48.694;9.476;2022-09-12T02:37:01;19.80;;;15.07;;
50012;SDS011;35901;48.694;9.476;2022-09-12T02:39:31;19.10;;;15.40;;
50012;SDS011;35901;48.694;9.476;2022-09-12T02:41:58;22.33;;;17.10;;
50012;SDS011;35901;48.694;9.476;2022-09-12T02:44:26;22.77;;;17.30;;
50012;SDS011;35901;48.694;9.476;2022-09-12T02:46:55;21.77;;;16.73;;
50012;SDS011;35901;48.694;9.476;2022-09-12T02:49:23;23.40;;;17.00;;
50012;SDS011;35901;48.694;9.476;2022-09-12T02:51:49;17.47;;;14.87;;
50012;SDS011;35901;48.694;9.476;2022-09-12T02:54:15;21.70;;;16.20;;
50012;SDS011;35901;48.694;9.476;2022-09-12T02:56:43;20.77;;;15.57;;
50012;SDS011;35901;48.694;9.476;2022-09-12T02:59:11;20.03;;;15.90;;
50012;SDS011;35901;48.694;9.476;2022-09-12T03:07:10;26.80;;;17.67;;
50012;SDS011;35901;48.694;9.476;2022-09-12T03:09:46;22.60;;;17.47;;
50012;SDS011;35901;48.694;9.476;2022-09-12T03:18:41;19.47;;;16.47;;
50012;SDS011;35901;48.694;9.476;2022-09-12T03:21:32;21.93;;;15.73;;
50012;SDS011;35901;48.694;9.476;2022-09-12T03:27:26;25.87;;;16.73;;
50012;SDS011;35901;48.694;9.476;2022-09-12T03:29:55;25.70;;;16.63;;
50012;SDS011;35901;48.694;9.476;2022-09-12T03:35:07;24.87;;;18.30;;
50012;SDS011;35901;48.694;9.476;2022-09-12T03:37:33;23.60;;;17.17;;
50012;SDS011;35901;48.694;9.476;2022-09-12T03:39:59;24.13;;;16.43;;
50012;SDS011;35901;48.694;9.476;2022-09-12T03:42:25;24.40;;;16.57;;
50012;SDS011;35901;48.694;9.476;2022-09-12T03:44:50;24.80;;;17.37;;
50012;SDS011;35901;48.694;9.476;2022-09-12T03:47:16;24.93;;;17.03;;
50012;SDS011;35901;48.694;9.476;2022-09-12T03:49:41;22.00;;;16.50;;
50012;SDS011;35901;48.694;9.476;2022-09-12T03:52:07;25.20;;;16.60;;
50012;SDS011;35901;48.694;9.476;2022-09-12T03:54:33;23.07;;;16.23;;
50012;SDS011;35901;48.694;9.476;2022-09-12T03:56:58;19.27;;;15.20;;
50012;SDS011;35901;48.694;9.476;2022-09-12T03:59:24;23.10;;;16.37;;
50012;SDS011;35901;48.694;9.476;2022-09-12T04:01:49;22.73;;;16.17;;
50012;SDS011;35901;48.694;9.476;2022-09-12T04:04:15;26.20;;;18.03;;
50012;SDS011;35901;48.694;9.476;2022-09-12T04:06:41;24.23;;;16.77;;
50012;SDS011;35901;48.694;9.476;2022-09-12T04:09:07;24.23;;;15.83;;
50012;SDS011;35901;48.694;9.476;2022-09-12T04:11:32;21.90;;;16.50;;
50012;SDS011;35901;48.694;9.476;2022-09-12T04:14:00;22.63;;;16.40;;
50012;SDS011;35901;48.694;9.476;2022-09-12T04:16:25;23.80;;;17.20;;
50012;SDS011;35901;48.694;9.476;2022-09-12T04:18:51;25.40;;;16.47;;
50012;SDS011;35901;48.694;9.476;2022-09-12T04:21:18;19.40;;;15.80;;
50012;SDS011;35901;48.694;9.476;2022-09-12T04:23:46;21.67;;;16.57;;
50012;SDS011;35901;48.694;9.476;2022-09-12T04:26:12;25.60;;;17.63;;
50012;SDS011;35901;48.694;9.476;2022-09-12T04:28:39;31.17;;;18.93;;
50012;SDS011;35901;48.694;9.476;2022-09-12T04:31:10;29.93;;;19.43;;
50012;SDS011;35901;48.694;9.476;2022-09-12T04:33:54;25.93;;;17.63;;
50012;SDS011;35901;48.694;9.476;2022-09-12T04:36:25;27.00;;;17.83;;
50012;SDS011;35901;48.694;9.476;2022-09-12T04:38:51;32.70;;;19.13;;
50012;SDS011;35901;48.694;9.476;2022-09-12T04:41:19;28.73;;;19.50;;
50012;SDS011;35901;48.694;9.476;2022-09-12T04:43:46;36.40;;;19.10;;
50012;SDS011;35901;48.694;9.476;2022-09-12T04:46:16;40.47;;;17.93;;
50012;SDS011;35901;48.694;9.476;2022-09-12T04:48:46;47.17;;;18.63;;
50012;SDS011;35901;48.694;9.476;2022-09-12T04:51:16;47.00;;;18.30;;
50012;SDS011;35901;48.694;9.476;2022-09-12T04:53:49;50.07;;;20.33;;
50012;SDS011;35901;48.694;9.476;2022-09-12T04:56:16;42.97;;;20.87;;
50012;SDS011;35901;48.694;9.476;2022-09-12T04:58:42;29.37;;;19.87;;
50012;SDS011;35901;48.694;9.476;2022-09-12T05:01:09;31.27;;;19.23;;
50012;SDS011;35901;48.694;9.476;2022-09-12T05:03:37;24.70;;;17.27;;
50012;SDS011;35901;48.694;9.476;2022-09-12T05:06:04;56.23;;;20.03;;
50012;SDS011;35901;48.694;9.476;2022-09-12T05:08:32;30.13;;;18.00;;
50012;SDS011;35901;48.694;9.476;2022-09-12T05:11:03;70.37;;;19.33;;
50012;SDS011;35901;48.694;9.476;2022-09-12T05:13:30;34.13;;;17.07;;
50012;SDS011;35901;48.694;9.476;2022-09-12T05:15:57;65.67;;;17.60;;
50012;SDS011;35901;48.694;9.476;2022-09-12T05:18:24;35.23;;;16.57;;
50012;SDS011;35901;48.694;9.476;2022-09-12T05:20:51;85.30;;;18.33;;
50012;SDS011;35901;48.694;9.476;2022-09-12T05:23:17;29.17;;;14.83;;
50012;SDS011;35901;48.694;9.476;2022-09-12T05:25:53;41.33;;;17.23;;
50012;SDS011;35901;48.694;9.476;2022-09-12T05:28:20;19.20;;;14.30;;
50012;SDS011;35901;48.694;9.476;2022-09-12T05:30:46;18.53;;;14.70;;
50012;SDS011;35901;48.694;9.476;2022-09-12T05:33:13;18.90;;;15.57;;
50012;SDS011;35901;48.694;9.476;2022-09-12T05:35:39;22.53;;;15.83;;
50012;SDS011;35901;48.694;9.476;2022-09-12T05:38:05;21.13;;;16.57;;
50012;SDS011;35901;48.694;9.476;2022-09-12T05:40:32;21.20;;;16.80;;
50012;SDS011;35901;48.694;9.476;2022-09-12T05:42:58;20.20;;;15.90;;
50012;SDS011;35901;48.694;9.476;2022-09-12T05:45:24;24.00;;;17.20;;
50012;SDS011;35901;48.694;9.476;2022-09-12T05:47:51;23.73;;;16.50;;
50012;SDS011;35901;48.694;9.476;2022-09-12T05:50:18;29.07;;;18.90;;
50012;SDS011;35901;48.694;9.476;2022-09-12T05:52:44;73.43;;;18.87;;
50012;SDS011;35901;48.694;9.476;2022-09-12T05:55:10;94.27;;;20.00;;
50012;SDS011;35901;48.694;9.476;2022-09-12T05:57:36;30.50;;;16.93;;
50012;SDS011;35901;48.694;9.476;2022-09-12T06:00:03;58.00;;;18.47;;
50012;SDS011;35901;48.694;9.476;2022-09-12T06:02:37;48.63;;;17.77;;
50012;SDS011;35901;48.694;9.476;2022-09-12T06:05:02;40.63;;;17.03;;
50012;SDS011;35901;48.694;9.476;2022-09-12T06:07:28;52.63;;;16.03;;
50012;SDS011;35901;48.694;9.476;2022-09-12T06:09:55;40.80;;;16.33;;
50012;SDS011;35901;48.694;9.476;2022-09-12T06:12:21;44.93;;;15.53;;
50012;SDS011;35901;48.694;9.476;2022-09-12T06:14:46;35.07;;;14.60;;
50012;SDS011;35901;48.694;9.476;2022-09-12T06:17:12;41.10;;;15.07;;
50012;SDS011;35901;48.694;9.476;2022-09-12T06:19:38;34.40;;;13.93;;
50012;SDS011;35901;48.694;9.476;2022-09-12T06:22:03;31.70;;;14.70;;
50012;SDS011;35901;48.694;9.476;2022-09-12T06:24:29;25.83;;;15.07;;
50012;SDS011;35901;48.694;9.476;2022-09-12T06:26:55;26.07;;;14.83;;
50012;SDS011;35901;48.694;9.476;2022-09-12T06:29:20;17.40;;;14.90;;
50012;SDS011;35901;48.694;9.476;2022-09-12T06:31:46;16.90;;;13.57;;
50012;SDS011;35901;48.694;9.476;2022-09-12T06:34:13;19.37;;;13.73;;
50012;SDS011;35901;48.694;9.476;2022-09-12T06:36:44;15.60;;;12.93;;
50012;SDS011;35901;48.694;9.476;2022-09-12T06:39:15;14.50;;;12.20;;
50012;SDS011;35901;48.694;9.476;2022-09-12T06:41:42;12.23;;;10.73;;
50012;SDS011;35901;48.694;9.476;2022-09-12T06:44:12;13.80;;;11.90;;
50012;SDS011;35901;48.694;9.476;2022-09-12T06:46:40;12.07;;;10.77;;
50012;SDS011;35901;48.694;9.476;2022-09-12T06:49:06;15.17;;;11.00;;
50012;SDS011;35901;48.694;9.476;2022-09-12T06:51:32;10.67;;;9.67;;
50012;SDS011;35901;48.694;9.476;2022-09-12T06:54:00;10.13;;;9.10;;
50012;SDS011;35901;48.694;9.476;2022-09-12T06:56:26;9.77;;;8.87;;
50012;SDS011;35901;48.694;9.476;2022-09-12T06:58:52;8.90;;;8.20;;
50012;SDS011;35901;48.694;9.476;2022-09-12T07:01:21;9.43;;;8.47;;
50012;SDS011;35901;48.694;9.476;2022-09-12T07:04:01;9.57;;;8.77;;
50012;SDS011;35901;48.694;9.476;2022-09-12T07:06:29;8.70;;;8.00;;
50012;SDS011;35901;48.694;9.476;2022-09-12T07:09:00;8.73;;;8.03;;
50012;SDS011;35901;48.694;9.476;2022-09-12T07:11:28;7.80;;;7.10;;
50012;SDS011;35901;48.694;9.476;2022-09-12T07:13:59;7.10;;;6.40;;
50012;SDS011;35901;48.694;9.476;2022-09-12T07:16:25;7.37;;;6.77;;
50012;SDS011;35901;48.694;9.476;2022-09-12T07:18:52;6.67;;;6.17;;
50012;SDS011;35901;48.694;9.476;2022-09-12T07:21:19;6.77;;;6.13;;
50012;SDS011;35901;48.694;9.476;2022-09-12T07:23:45;6.20;;;5.70;;
50012;SDS011;35901;48.694;9.476;2022-09-12T07:26:12;7.10;;;6.50;;
50012;SDS011;35901;48.694;9.476;2022-09-12T07:28:39;7.07;;;6.37;;
50012;SDS011;35901;48.694;9.476;2022-09-12T07:31:13;6.90;;;6.30;;
50012;SDS011;35901;48.694;9.476;2022-09-12T07:44:14;8.17;;;7.47;;
50012;SDS011;35901;48.694;9.476;2022-09-12T07:46:40;7.77;;;7.17;;
50012;SDS011;35901;48.694;9.476;2022-09-12T07:49:06;7.77;;;7.17;;
50012;SDS011;35901;48.694;9.476;2022-09-12T07:51:31;7.13;;;6.60;;
50012;SDS011;35901;48.694;9.476;2022-09-12T07:53:57;8.20;;;7.60;;
50012;SDS011;35901;48.694;9.476;2022-09-12T07:56:23;8.73;;;7.93;;
50012;SDS011;35901;48.694;9.476;2022-09-12T07:58:51;6.30;;;5.80;;
50012;SDS011;35901;48.694;9.476;2022-09-12T08:01:20;7.40;;;6.77;;
50012;SDS011;35901;48.694;9.476;2022-09-12T08:03:51;7.03;;;6.47;;
50012;SDS011;35901;48.694;9.476;2022-09-12T08:11:24;6.87;;;6.37;;
50012;SDS011;35901;48.694;9.476;2022-09-12T08:13:52;6.60;;;6.10;;
50012;SDS011;35901;48.694;9.476;2022-09-12T08:16:20;6.80;;;6.20;;
50012;SDS011;35901;48.694;9.476;2022-09-12T08:18:47;7.60;;;7.00;;
50012;SDS011;35901;48.694;9.476;2022-09-12T08:21:23;6.57;;;5.97;;
50012;SDS011;35901;48.694;9.476;2022-09-12T08:23:54;6.23;;;5.83;;
50012;SDS011;35901;48.694;9.476;2022-09-12T08:26:28;5.10;;;4.70;;
50012;SDS011;35901;48.694;9.476;2022-09-12T08:28:54;5.53;;;5.13;;
50012;SDS011;35901;48.694;9.476;2022-09-12T08:31:20;6.00;;;5.60;;
50012;SDS011;35901;48.694;9.476;2022-09-12T08:33:47;4.70;;;4.40;;
50012;SDS011;35901;48.694;9.476;2022-09-12T08:40:01;6.23;;;5.63;;
50012;SDS011;35901;48.694;9.476;2022-09-12T08:45:27;5.07;;;4.67;;
50012;SDS011;35901;48.694;9.476;2022-09-12T08:47:59;5.10;;;4.70;;
50012;SDS011;35901;48.694;9.476;2022-09-12T08:50:27;4.50;;;4.20;;
50012;SDS011;35901;48.694;9.476;2022-09-12T08:53:09;5.63;;;5.13;;
50012;SDS011;35901;48.694;9.476;2022-09-12T08:55:42;5.40;;;4.93;;
50012;SDS011;35901;48.694;9.476;2022-09-12T08:58:13;4.30;;;4.00;;
50012;SDS011;35901;48.694;9.476;2022-09-12T09:11:55;4.50;;;4.10;;
50012;SDS011;35901;48.694;9.476;2022-09-12T09:17:30;3.97;;;3.67;;
50012;SDS011;35901;48.694;9.476;2022-09-12T09:22:39;4.67;;;4.30;;
50012;SDS011;35901;48.694;9.476;2022-09-12T09:25:18;5.07;;;4.67;;
50012;SDS011;35901;48.694;9.476;2022-09-12T09:27:51;4.63;;;4.13;;
50012;SDS011;35901;48.694;9.476;2022-09-12T09:30:22;4.40;;;4.10;;
50012;SDS011;35901;48.694;9.476;2022-09-12T09:32:55;3.70;;;3.40;;
50012;SDS011;35901;48.694;9.476;2022-09-12T09:44:55;3.90;;;3.60;;
50012;SDS011;35901;48.694;9.476;2022-09-12T09:47:23;4.33;;;4.03;;
50012;SDS011;35901;48.694;9.476;2022-09-12T09:49:49;3.03;;;2.83;;
50012;SDS011;35901;48.694;9.476;2022-09-12T09:52:15;4.40;;;4.10;;
50012;SDS011;35901;48.694;9.476;2022-09-12T09:54:52;3.23;;;3.03;;
50012;SDS011;35901;48.694;9.476;2022-09-12T10:09:42;2.80;;;2.60;;
50012;SDS011;35901;48.694;9.476;2022-09-12T10:12:28;2.70;;;2.50;;
50012;SDS011;35901;48.694;9.476;2022-09-12T10:15:00;2.00;;;1.90;;
50012;SDS011;35901;48.694;9.476;2022-09-12T10:17:29;2.33;;;2.13;;
50012;SDS011;35901;48.694;9.476;2022-09-12T10:22:58;2.63;;;2.17;;
50012;SDS011;35901;48.694;9.476;2022-09-12T10:25:27;2.10;;;1.90;;
50012;SDS011;35901;48.694;9.476;2022-09-12T10:27:57;1.90;;;1.80;;
50012;SDS011;35901;48.694;9.476;2022-09-12T10:30:25;1.70;;;1.60;;
50012;SDS011;35901;48.694;9.476;2022-09-12T10:32:53;2.53;;;2.30;;
50012;SDS011;35901;48.694;9.476;2022-09-12T10:38:37;2.10;;;2.00;;
50012;SDS011;35901;48.694;9.476;2022-09-12T10:41:04;2.90;;;2.00;;
50012;SDS011;35901;48.694;9.476;2022-09-12T10:43:38;2.97;;;2.00;;
50012;SDS011;35901;48.694;9.476;2022-09-12T10:48:47;1.90;;;1.80;;
50012;SDS011;35901;48.694;9.476;2022-09-12T10:51:25;1.93;;;1.80;;
50012;SDS011;35901;48.694;9.476;2022-09-12T10:53:58;1.80;;;1.70;;
50012;SDS011;35901;48.694;9.476;2022-09-12T11:01:41;2.10;;;1.93;;
50012;SDS011;35901;48.694;9.476;2022-09-12T11:04:39;1.53;;;1.43;;
50012;SDS011;35901;48.694;9.476;2022-09-12T11:30:26;2.10;;;1.80;;
50012;SDS011;35901;48.694;9.476;2022-09-12T11:39:00;1.77;;;1.67;;
50012;SDS011;35901;48.694;9.476;2022-09-12T11:41:50;1.70;;;1.60;;
50012;SDS011;35901;48.694;9.476;2022-09-12T11:44:22;1.70;;;1.60;;
50012;SDS011;35901;48.694;9.476;2022-09-12T11:46:52;1.77;;;1.67;;
50012;SDS011;35901;48.694;9.476;2022-09-12T11:49:24;1.70;;;1.60;;
50012;SDS011;35901;48.694;9.476;2022-09-12T11:52:19;1.43;;;1.40;;
50012;SDS011;35901;48.694;9.476;2022-09-12T11:55:01;2.50;;;1.90;;
50012;SDS011;35901;48.694;9.476;2022-09-12T11:57:34;1.93;;;1.83;;
50012;SDS011;35901;48.694;9.476;2022-09-12T12:02:39;1.60;;;1.50;;
50012;SDS011;35901;48.694;9.476;2022-09-12T12:05:19;1.70;;;1.60;;
50012;SDS011;35901;48.694;9.476;2022-09-12T12:10:47;1.57;;;1.47;;
50012;SDS011;35901;48.694;9.476;2022-09-12T12:16:22;1.37;;;1.37;;
50012;SDS011;35901;48.694;9.476;2022-09-12T12:18:57;1.63;;;1.50;;
50012;SDS011;35901;48.694;9.476;2022-09-12T12:24:10;1.70;;;1.60;;
50012;SDS011;35901;48.694;9.476;2022-09-12T12:44:59;1.50;;;1.40;;
50012;SDS011;35901;48.694;9.476;2022-09-12T12:50:04;1.77;;;1.67;;
50012;SDS011;35901;48.694;9.476;2022-09-12T12:55:14;1.40;;;1.40;;
50012;SDS011;35901;48.694;9.476;2022-09-12T12:58:04;1.60;;;1.50;;
50012;SDS011;35901;48.694;9.476;2022-09-12T13:00:42;1.60;;;1.50;;
50012;SDS011;35901;48.694;9.476;2022-09-12T13:03:18;1.60;;;1.50;;
50012;SDS011;35901;48.694;9.476;2022-09-12T13:05:57;1.80;;;1.70;;
50012;SDS011;35901;48.694;9.476;2022-09-12T13:12:18;1.60;;;1.50;;
50012;SDS011;35901;48.694;9.476;2022-09-12T13:14:57;1.57;;;1.47;;
50012;SDS011;35901;48.694;9.476;2022-09-12T13:17:26;2.33;;;1.70;;
50012;SDS011;35901;48.694;9.476;2022-09-12T13:20:25;1.67;;;1.57;;
50012;SDS011;35901;48.694;9.476;2022-09-12T13:22:54;1.40;;;1.40;;
50012;SDS011;35901;48.694;9.476;2022-09-12T13:30:53;1.70;;;1.60;;
50012;SDS011;35901;48.694;9.476;2022-09-12T13:33:36;1.70;;;1.60;;
50012;SDS011;35901;48.694;9.476;2022-09-12T13:42:25;2.73;;;1.70;;
50012;SDS011;35901;48.694;9.476;2022-09-12T13:47:52;1.40;;;1.40;;
50012;SDS011;35901;48.694;9.476;2022-09-12T13:50:30;1.50;;;1.50;;
50012;SDS011;35901;48.694;9.476;2022-09-12T13:53:17;1.50;;;1.40;;
50012;SDS011;35901;48.694;9.476;2022-09-12T13:55:47;2.47;;;1.40;;
50012;SDS011;35901;48.694;9.476;2022-09-12T14:03:52;1.60;;;1.50;;
50012;SDS011;35901;48.694;9.476;2022-09-12T14:14:50;1.40;;;1.30;;
50012;SDS011;35901;48.694;9.476;2022-09-12T14:17:18;1.33;;;1.30;;
50012;SDS011;35901;48.694;9.476;2022-09-12T14:20:07;1.30;;;1.30;;
50012;SDS011;35901;48.694;9.476;2022-09-12T14:22:38;1.50;;;1.40;;
50012;SDS011;35901;48.694;9.476;2022-09-12T14:25:05;1.57;;;1.47;;
50012;SDS011;35901;48.694;9.476;2022-09-12T14:27:40;3.07;;;1.53;;
50012;SDS011;35901;48.694;9.476;2022-09-12T14:30:23;1.43;;;1.40;;
50012;SDS011;35901;48.694;9.476;2022-09-12T14:35:40;1.30;;;1.30;;
50012;SDS011;35901;48.694;9.476;2022-09-12T14:48:16;1.50;;;1.40;;
50012;SDS011;35901;48.694;9.476;2022-09-12T14:50:43;1.60;;;1.50;;
50012;SDS011;35901;48.694;9.476;2022-09-12T14:55:44;1.63;;;1.40;;
50012;SDS011;35901;48.694;9.476;2022-09-12T14:58:15;2.23;;;1.50;;
50012;SDS011;35901;48.694;9.476;2022-09-12T15:00:58;1.30;;;1.30;;
50012;SDS011;35901;48.694;9.476;2022-09-12T15:06:19;1.60;;;1.40;;
50012;SDS011;35901;48.694;9.476;2022-09-12T15:08:47;1.50;;;1.40;;
50012;SDS011;35901;48.694;9.476;2022-09-12T15:14:20;1.50;;;1.40;;
50012;SDS011;35901;48.694;9.476;2022-09-12T15:16:46;1.37;;;1.33;;
50012;SDS011;35901;48.694;9.476;2022-09-12T15:19:12;1.67;;;1.40;;
50012;SDS011;35901;48.694;9.476;2022-09-12T15:21:38;1.60;;;1.40;;
50012;SDS011;35901;48.694;9.476;2022-09-12T15:24:04;1.70;;;1.20;;
50012;SDS011;35901;48.694;9.476;2022-09-12T15:26:30;1.50;;;1.40;;
50012;SDS011;35901;48.694;9.476;2022-09-12T15:28:55;1.50;;;1.40;;
50012;SDS011;35901;48.694;9.476;2022-09-12T15:31:28;1.93;;;1.60;;
50012;SDS011;35901;48.694;9.476;2022-09-12T15:33:57;1.27;;;1.13;;
50012;SDS011;35901;48.694;9.476;2022-09-12T15:36:24;1.40;;;1.30;;
50012;SDS011;35901;48.694;9.476;2022-09-12T15:38:51;1.40;;;1.40;;
50012;SDS011;35901;48.694;9.476;2022-09-12T15:45:11;1.40;;;1.40;;
50012;SDS011;35901;48.694;9.476;2022-09-12T15:47:44;1.57;;;1.47;;
50012;SDS011;35901;48.694;9.476;2022-09-12T15:50:10;1.80;;;1.40;;
50012;SDS011;35901;48.694;9.476;2022-09-12T15:52:37;1.50;;;1.40;;
50012;SDS011;35901;48.694;9.476;2022-09-12T15:55:03;1.20;;;1.20;;
50012;SDS011;35901;48.694;9.476;2022-09-12T15:57:31;1.30;;;1.30;;
50012;SDS011;35901;48.694;9.476;2022-09-12T15:59:57;1.57;;;1.47;;
50012;SDS011;35901;48.694;9.476;2022-09-12T16:02:22;1.60;;;1.60;;
50012;SDS011;35901;48.694;9.476;2022-09-12T16:04:48;1.90;;;1.33;;
50012;SDS011;35901;48.694;9.476;2022-09-12T16:07:17;1.60;;;1.50;;
50012;SDS011;35901;48.694;9.476;2022-09-12T16:09:43;1.33;;;1.33;;
50012;SDS011;35901;48.694;9.476;2022-09-12T16:15:35;1.60;;;1.50;;
50012;SDS011;35901;48.694;9.476;2022-09-12T16:18:01;1.40;;;1.30;;
50012;SDS011;35901;48.694;9.476;2022-09-12T16:20:27;1.40;;;1.30;;
50012;SDS011;35901;48.694;9.476;2022-09-12T16:22:52;1.50;;;1.40;;
50012;SDS011;35901;48.694;9.476;2022-09-12T16:25:19;1.73;;;1.50;;
50012;SDS011;35901;48.694;9.476;2022-09-12T16:27:45;1.50;;;1.40;;
50012;SDS011;35901;48.694;9.476;2022-09-12T16:30:10;1.73;;;1.60;;
50012;SDS011;35901;48.694;9.476;2022-09-12T16:32:37;1.60;;;1.30;;
50012;SDS011;35901;48.694;9.476;2022-09-12T16:35:03;3.10;;;1.40;;
50012;SDS011;35901;48.694;9.476;2022-09-12T16:37:37;1.50;;;1.40;;
50012;SDS011;35901;48.694;9.476;2022-09-12T16:40:03;1.40;;;1.40;;
50012;SDS011;35901;48.694;9.476;2022-09-12T16:46:18;1.50;;;1.40;;
50012;SDS011;35901;48.694;9.476;2022-09-12T16:48:47;1.67;;;1.40;;
50012;SDS011;35901;48.694;9.476;2022-09-12T16:51:15;1.70;;;1.60;;
50012;SDS011;35901;48.694;9.476;2022-09-12T16:53:44;1.30;;;1.30;;
50012;SDS011;35901;48.694;9.476;2022-09-12T16:56:10;1.50;;;1.40;;
50012;SDS011;35901;48.694;9.476;2022-09-12T16:58:37;2.33;;;1.63;;
50012;SDS011;35901;48.694;9.476;2022-09-12T17:01:06;1.53;;;1.43;;
50012;SDS011;35901;48.694;9.476;2022-09-12T17:03:33;1.10;;;1.10;;
50012;SDS011;35901;48.694;9.476;2022-09-12T17:06:07;1.20;;;1.20;;
50012;SDS011;35901;48.694;9.476;2022-09-12T17:08:35;1.40;;;1.30;;
50012;SDS011;35901;48.694;9.476;2022-09-12T17:11:19;1.30;;;1.20;;
50012;SDS011;35901;48.694;9.476;2022-09-12T17:14:05;1.50;;;1.40;;
50012;SDS011;35901;48.694;9.476;2022-09-12T17:16:33;2.10;;;1.40;;
50012;SDS011;35901;48.694;9.476;2022-09-12T17:19:00;1.30;;;1.30;;
50012;SDS011;35901;48.694;9.476;2022-09-12T17:21:27;1.43;;;1.40;;
50012;SDS011;35901;48.694;9.476;2022-09-12T17:23:53;1.20;;;1.20;;
50012;SDS011;35901;48.694;9.476;2022-09-12T17:26:19;1.90;;;1.40;;
50012;SDS011;35901;48.694;9.476;2022-09-12T17:28:44;1.60;;;1.50;;
50012;SDS011;35901;48.694;9.476;2022-09-12T17:31:11;2.47;;;1.50;;
50012;SDS011;35901;48.694;9.476;2022-09-12T17:33:38;2.10;;;1.57;;
50012;SDS011;35901;48.694;9.476;2022-09-12T17:36:06;1.60;;;1.50;;
50012;SDS011;35901;48.694;9.476;2022-09-12T17:38:34;3.23;;;1.60;;
50012;SDS011;35901;48.694;9.476;2022-09-12T17:41:04;1.60;;;1.50;;
50012;SDS011;35901;48.694;9.476;2022-09-12T17:43:31;1.83;;;1.43;;
50012;SDS011;35901;48.694;9.476;2022-09-12T17:49:12;1.50;;;1.50;;
50012;SDS011;35901;48.694;9.476;2022-09-12T17:51:39;1.70;;;1.60;;
50012;SDS011;35901;48.694;9.476;2022-09-12T17:54:08;1.77;;;1.67;;
50012;SDS011;35901;48.694;9.476;2022-09-12T17:56:36;1.73;;;1.63;;
50012;SDS011;35901;48.694;9.476;2022-09-12T17:59:03;2.43;;;1.70;;
50012;SDS011;35901;48.694;9.476;2022-09-12T18:01:30;1.87;;;1.50;;
50012;SDS011;35901;48.694;9.476;2022-09-12T18:04:15;2.50;;;1.50;;
50012;SDS011;35901;48.694;9.476;2022-09-12T18:06:41;1.50;;;1.40;;
50012;SDS011;35901;48.694;9.476;2022-09-12T18:09:12;1.63;;;1.50;;
50012;SDS011;35901;48.694;9.476;2022-09-12T18:11:38;1.60;;;1.50;;
50012;SDS011;35901;48.694;9.476;2022-09-12T18:14:04;2.43;;;1.63;;
50012;SDS011;35901;48.694;9.476;2022-09-12T18:19:40;2.20;;;1.83;;
50012;SDS011;35901;48.694;9.476;2022-09-12T18:22:05;3.67;;;1.70;;
50012;SDS011;35901;48.694;9.476;2022-09-12T18:24:31;1.57;;;1.47;;
50012;SDS011;35901;48.694;9.476;2022-09-12T18:26:57;1.60;;;1.50;;
50012;SDS011;35901;48.694;9.476;2022-09-12T18:29:23;2.13;;;1.60;;
50012;SDS011;35901;48.694;9.476;2022-09-12T18:31:51;2.43;;;2.00;;
50012;SDS011;35901;48.694;9.476;2022-09-12T18:34:17;1.80;;;1.70;;
50012;SDS011;35901;48.694;9.476;2022-09-12T18:36:44;2.87;;;2.00;;
50012;SDS011;35901;48.694;9.476;2022-09-12T18:39:11;4.20;;;1.90;;
50012;SDS011;35901;48.694;9.476;2022-09-12T18:41:38;1.80;;;1.70;;
50012;SDS011;35901;48.694;9.476;2022-09-12T18:44:04;1.80;;;1.70;;
50012;SDS011;35901;48.694;9.476;2022-09-12T18:50:25;2.00;;;1.77;;
50012;SDS011;35901;48.694;9.476;2022-09-12T18:52:51;2.20;;;2.10;;
50012;SDS011;35901;48.694;9.476;2022-09-12T18:55:17;2.07;;;1.97;;
50012;SDS011;35901;48.694;9.476;2022-09-12T18:57:43;1.80;;;1.70;;
50012;SDS011;35901;48.694;9.476;2022-09-12T19:00:09;2.03;;;1.77;;
50012;SDS011;35901;48.694;9.476;2022-09-12T19:02:36;2.03;;;1.93;;
50012;SDS011;35901;48.694;9.476;2022-09-12T19:05:03;2.43;;;1.80;;
50012;SDS011;35901;48.694;9.476;2022-09-12T19:07:30;2.37;;;1.80;;
50012;SDS011;35901;48.694;9.476;2022-09-12T19:09:56;2.07;;;1.90;;
50012;SDS011;35901;48.694;9.476;2022-09-12T19:12:22;1.77;;;1.67;;
50012;SDS011;35901;48.694;9.476;2022-09-12T19:14:47;3.83;;;2.17;;